Time;durP1;ratioP1;P1;durP2;ratioP2;P2;SDS_P1;SDS_P2;PMS_P1;PMS_P2;Temp;Humidity;BMP_temperature;BMP_pressure;BME280_temperature;BME280_humidity;BME280_pressure;Samples;Min_cycle;Max_cycle;Signal;HPM_P1;HPM_P2
2022/10/20 00:00:55;;;;;;;23.75;17.88;;;12.60;99.90;;;;;;5074888;28;20041;-65
2022/10/20 00:03:21;;;;;;;22.75;17.85;;;12.50;99.90;;;;;;5074806;28;20027;-63
2022/10/20 00:05:47;;;;;;;17.70;14.18;;;12.40;99.90;;;;;;5074953;28;20032;-64
2022/10/20 00:08:13;;;;;;;18.48;14.63;;;12.40;99.90;;;;;;5074814;28;20463;-63
2022/10/20 00:10:39;;;;;;;19.40;14.68;;;12.50;99.90;;;;;;5074730;28;20029;-63
2022/10/20 00:13:04;;;;;;;20.95;16.67;;;12.50;99.90;;;;;;5074397;28;20046;-63
2022/10/20 00:15:30;;;;;;;24.40;18.83;;;12.60;99.90;;;;;;5074499;28;20032;-63
2022/10/20 00:17:56;;;;;;;18.13;14.65;;;12.40;99.90;;;;;;5074571;28;20027;-64
2022/10/20 00:20:21;;;;;;;20.38;17.13;;;12.40;99.90;;;;;;5074721;28;20027;-64
2022/10/20 00:22:47;;;;;;;17.30;14.32;;;12.50;99.90;;;;;;5074374;28;20107;-64
2022/10/20 00:25:12;;;;;;;17.05;13.73;;;12.40;99.90;;;;;;5074381;28;20446;-64
2022/10/20 00:27:38;;;;;;;14.75;12.30;;;12.40;99.90;;;;;;5074073;28;20499;-63
2022/10/20 00:30:04;;;;;;;15.07;12.70;;;12.50;99.90;;;;;;5074170;28;20379;-65
2022/10/20 00:32:30;;;;;;;11.77;9.75;;;12.50;99.90;;;;;;5074352;28;20024;-63
2022/10/20 00:34:56;;;;;;;13.05;10.57;;;12.60;99.90;;;;;;5074243;28;20021;-64
2022/10/20 00:37:21;;;;;;;11.40;9.75;;;12.60;99.90;;;;;;5074081;28;20024;-63
2022/10/20 00:39:47;;;;;;;12.93;10.40;;;12.60;99.90;;;;;;5074056;28;20029;-64
2022/10/20 00:42:18;;;;;;;15.52;11.68;;;12.60;99.90;;;;;;5073791;28;20146;-63
2022/10/20 00:44:58;;;;;;;11.20;9.50;;;12.50;99.90;;;;;;5074251;28;20027;-64
2022/10/20 00:47:41;;;;;;;9.90;8.55;;;12.50;99.90;;;;;;5073247;28;20154;-64
2022/10/20 00:50:16;;;;;;;10.02;8.32;;;12.50;99.90;;;;;;5073775;28;20060;-63
2022/10/20 00:52:43;;;;;;;9.68;8.15;;;12.50;99.90;;;;;;5073885;28;20027;-64
2022/10/20 00:55:10;;;;;;;9.82;8.18;;;12.50;99.90;;;;;;5074126;28;20032;-63
2022/10/20 00:57:37;;;;;;;9.15;7.20;;;12.40;99.90;;;;;;5073842;28;20020;-63
2022/10/20 01:00:05;;;;;;;13.38;10.77;;;12.40;99.90;;;;;;5073783;28;20483;-64
2022/10/20 01:02:30;;;;;;;13.32;10.52;;;12.40;99.90;;;;;;5073690;28;20073;-63
2022/10/20 01:04:56;;;;;;;9.55;8.15;;;12.30;99.90;;;;;;5073571;28;20100;-65
2022/10/20 01:07:22;;;;;;;10.05;8.27;;;12.20;99.90;;;;;;5073734;28;20024;-64
2022/10/20 01:09:48;;;;;;;13.55;9.93;;;12.20;99.90;;;;;;5073611;28;20094;-64
2022/10/20 01:12:48;;;;;;;11.95;8.95;;;12.20;99.90;;;;;;5073424;28;20017;-64
2022/10/20 01:15:25;;;;;;;9.65;8.52;;;12.20;99.90;;;;;;5073440;28;20450;-64
2022/10/20 01:18:07;;;;;;;10.73;8.55;;;12.20;99.90;;;;;;5073562;28;20047;-64
2022/10/20 01:20:33;;;;;;;8.90;7.60;;;12.30;99.90;;;;;;5073407;28;20123;-64
2022/10/20 01:23:20;;;;;;;8.18;7.05;;;12.30;99.90;;;;;;5073475;28;20025;-63
2022/10/20 01:26:01;;;;;;;8.45;7.50;;;12.30;99.90;;;;;;5073124;28;20020;-64
2022/10/20 01:28:41;;;;;;;10.80;8.77;;;12.40;99.90;;;;;;5073104;28;20102;-64
2022/10/20 01:31:29;;;;;;;8.77;6.68;;;12.40;99.90;;;;;;5073240;28;20024;-64
2022/10/20 01:34:13;;;;;;;9.80;8.10;;;12.30;99.90;;;;;;5073474;28;20048;-63
2022/10/20 01:37:00;;;;;;;9.43;7.57;;;12.30;99.90;;;;;;5072891;28;20027;-63
2022/10/20 01:39:51;;;;;;;7.97;6.75;;;12.30;99.90;;;;;;5073021;28;20028;-64
2022/10/20 01:42:25;;;;;;;11.60;7.82;;;12.30;99.90;;;;;;5072657;28;20029;-63
2022/10/20 01:44:54;;;;;;;11.50;8.40;;;12.20;99.90;;;;;;5073136;28;20025;-63
2022/10/20 01:47:23;;;;;;;7.32;6.63;;;12.10;99.90;;;;;;5073228;28;20097;-65
2022/10/20 01:49:50;;;;;;;8.52;6.85;;;12.10;99.90;;;;;;5073097;28;20032;-62
2022/10/20 01:52:16;;;;;;;9.48;6.75;;;12.10;99.90;;;;;;5073082;28;20021;-63
2022/10/20 01:54:42;;;;;;;6.50;5.63;;;12.10;99.90;;;;;;5072964;28;20032;-64
2022/10/20 01:57:44;;;;;;;8.00;6.50;;;12.20;99.90;;;;;;5073165;28;20467;-63
2022/10/20 02:00:15;;;;;;;6.80;6.05;;;12.10;99.90;;;;;;5073128;28;20033;-64
2022/10/20 02:03:19;;;;;;;6.82;6.13;;;12.10;99.90;;;;;;5072986;28;20475;-63
2022/10/20 02:05:56;;;;;;;6.40;5.72;;;12.10;99.90;;;;;;5070910;28;20029;-64
2022/10/20 02:08:45;;;;;;;5.93;5.30;;;12.20;99.90;;;;;;5072481;28;20483;-64
2022/10/20 02:11:23;;;;;;;7.10;6.30;;;12.20;99.90;;;;;;5072799;28;20085;-64
2022/10/20 02:13:51;;;;;;;10.93;8.15;;;12.20;99.90;;;;;;5073013;28;20078;-64
2022/10/20 02:16:28;;;;;;;8.20;6.65;;;12.20;99.90;;;;;;5072802;28;20095;-64
2022/10/20 02:18:55;;;;;;;8.07;6.38;;;12.20;99.90;;;;;;5072889;28;20027;-64
2022/10/20 02:21:21;;;;;;;7.80;6.25;;;12.10;99.90;;;;;;5072860;28;20063;-63
2022/10/20 02:23:50;;;;;;;7.00;6.30;;;12.20;99.90;;;;;;5072570;28;20106;-64
2022/10/20 02:26:19;;;;;;;8.30;6.53;;;12.20;99.90;;;;;;5073049;28;20048;-63
2022/10/20 02:28:52;;;;;;;7.75;6.43;;;12.20;99.90;;;;;;5072680;28;20123;-64
2022/10/20 02:31:18;;;;;;;8.13;7.30;;;12.20;99.90;;;;;;5072712;28;20047;-63
2022/10/20 02:33:45;;;;;;;6.47;5.70;;;12.20;99.90;;;;;;5072873;28;20467;-63
2022/10/20 02:36:18;;;;;;;6.28;5.50;;;12.20;99.90;;;;;;5072773;28;20017;-64
2022/10/20 02:38:43;;;;;;;8.88;7.00;;;12.20;99.90;;;;;;5072588;28;20028;-63
2022/10/20 02:41:09;;;;;;;6.82;6.07;;;12.20;99.90;;;;;;5072780;28;20036;-64
2022/10/20 02:43:35;;;;;;;6.20;5.53;;;12.20;99.90;;;;;;5072934;28;20074;-63
2022/10/20 02:46:01;;;;;;;7.63;6.40;;;12.10;99.90;;;;;;5072630;28;20021;-63
2022/10/20 02:48:26;;;;;;;10.30;7.90;;;12.10;99.90;;;;;;5073093;28;20025;-63
2022/10/20 02:50:52;;;;;;;8.70;7.38;;;12.10;99.90;;;;;;5076131;28;20024;-63
2022/10/20 02:53:18;;;;;;;8.00;6.63;;;12.00;99.90;;;;;;5075901;28;20021;-63
2022/10/20 02:55:43;;;;;;;8.73;7.25;;;11.90;99.90;;;;;;5076166;28;20024;-65
2022/10/20 02:58:09;;;;;;;10.30;8.77;;;11.90;99.90;;;;;;5076369;28;20020;-64
2022/10/20 03:00:35;;;;;;;7.97;6.55;;;11.80;99.90;;;;;;5075944;28;20024;-63
2022/10/20 03:03:01;;;;;;;8.70;6.53;;;11.80;99.90;;;;;;5076133;28;20028;-65
2022/10/20 03:05:28;;;;;;;11.60;8.48;;;11.80;99.90;;;;;;5076047;28;20029;-63
2022/10/20 03:07:54;;;;;;;10.18;7.57;;;11.70;99.90;;;;;;5075675;28;20024;-65
2022/10/20 03:10:19;;;;;;;11.10;8.95;;;11.70;99.90;;;;;;5076071;28;20111;-64
2022/10/20 03:12:45;;;;;;;11.00;8.48;;;11.70;99.90;;;;;;5075820;28;20021;-64
2022/10/20 03:15:11;;;;;;;8.82;7.60;;;11.70;99.90;;;;;;5075773;28;20095;-63
2022/10/20 03:17:36;;;;;;;12.35;9.73;;;11.70;99.90;;;;;;5075703;28;20131;-63
2022/10/20 03:20:04;;;;;;;12.02;9.25;;;11.70;99.90;;;;;;5075768;28;20106;-63
2022/10/20 03:22:30;;;;;;;13.63;10.75;;;11.70;99.90;;;;;;5075442;28;20445;-65
2022/10/20 03:24:55;;;;;;;16.70;13.52;;;11.60;99.90;;;;;;5074211;28;20020;-64
2022/10/20 03:27:21;;;;;;;17.40;13.73;;;11.60;99.90;;;;;;5075296;28;20016;-63
2022/10/20 03:29:46;;;;;;;17.85;13.30;;;11.40;99.90;;;;;;5075441;28;20028;-63
2022/10/20 03:32:12;;;;;;;19.33;16.23;;;11.40;99.90;;;;;;5075371;28;20016;-64
2022/10/20 03:34:38;;;;;;;13.07;11.25;;;11.40;99.90;;;;;;5075479;28;20025;-63
2022/10/20 03:37:04;;;;;;;17.17;13.57;;;11.40;99.90;;;;;;5075141;28;20028;-64
2022/10/20 03:39:29;;;;;;;19.45;15.20;;;11.40;99.90;;;;;;5075208;28;20046;-63
2022/10/20 03:41:56;;;;;;;13.45;11.23;;;11.40;99.90;;;;;;5075356;28;20095;-64
2022/10/20 03:44:22;;;;;;;15.88;12.18;;;11.40;99.90;;;;;;5075242;28;20481;-64
2022/10/20 03:46:48;;;;;;;16.20;13.00;;;11.40;99.90;;;;;;5075147;28;20024;-63
2022/10/20 03:49:14;;;;;;;11.73;10.13;;;11.40;99.90;;;;;;5075173;28;20091;-63
2022/10/20 03:51:39;;;;;;;11.35;9.00;;;11.30;99.90;;;;;;5074887;28;20016;-64
2022/10/20 03:54:05;;;;;;;9.82;8.55;;;11.20;99.90;;;;;;5075371;28;20064;-63
2022/10/20 03:56:31;;;;;;;16.55;12.52;;;11.20;99.90;;;;;;5074957;28;20379;-63
2022/10/20 03:58:56;;;;;;;18.17;14.23;;;11.20;99.90;;;;;;5074924;28;20539;-63
2022/10/20 04:01:27;;;;;;;14.73;12.45;;;11.10;99.90;;;;;;5074640;28;20055;-64
2022/10/20 04:03:53;;;;;;;17.65;12.88;;;11.10;99.90;;;;;;5074626;28;20017;-62
2022/10/20 04:06:19;;;;;;;16.75;12.43;;;11.00;99.90;;;;;;5074913;28;20496;-64
2022/10/20 04:08:44;;;;;;;15.98;11.98;;;11.10;99.90;;;;;;5074786;28;20017;-63
2022/10/20 04:11:10;;;;;;;16.88;13.13;;;11.10;99.90;;;;;;5074542;28;20055;-63
2022/10/20 04:13:36;;;;;;;19.95;13.50;;;11.10;99.90;;;;;;5074626;28;20478;-64
2022/10/20 04:16:01;;;;;;;17.48;12.45;;;11.10;99.90;;;;;;5074616;28;20031;-64
2022/10/20 04:18:27;;;;;;;15.38;11.45;;;11.00;99.90;;;;;;5074207;28;20016;-64
2022/10/20 04:20:52;;;;;;;15.60;11.85;;;11.00;99.90;;;;;;5074529;28;20082;-65
2022/10/20 04:23:18;;;;;;;13.75;10.98;;;11.00;99.90;;;;;;5074475;28;20086;-64
2022/10/20 04:25:47;;;;;;;20.20;14.65;;;11.00;99.90;;;;;;5074352;28;20409;-63
2022/10/20 04:28:17;;;;;;;16.17;13.35;;;11.00;99.90;;;;;;5074164;28;20044;-64
2022/10/20 04:30:43;;;;;;;20.30;13.60;;;10.90;99.90;;;;;;5074264;28;20029;-64
2022/10/20 04:33:10;;;;;;;18.27;12.15;;;10.90;99.90;;;;;;5073989;28;20442;-64
2022/10/20 04:35:36;;;;;;;15.73;11.75;;;10.90;99.90;;;;;;5074256;28;20060;-63
2022/10/20 04:38:01;;;;;;;16.15;12.75;;;10.90;99.90;;;;;;5074215;28;20058;-64
2022/10/20 04:40:27;;;;;;;36.08;27.35;;;10.90;99.90;;;;;;5074035;28;20016;-65
2022/10/20 04:42:52;;;;;;;22.10;17.85;;;10.90;99.90;;;;;;5074132;28;20027;-65
2022/10/20 04:45:18;;;;;;;15.80;13.70;;;10.80;99.90;;;;;;5074397;28;20025;-64
2022/10/20 04:47:44;;;;;;;14.15;12.38;;;10.80;99.90;;;;;;5073796;28;20024;-63
2022/10/20 04:50:09;;;;;;;19.25;14.95;;;10.80;99.90;;;;;;5071810;28;20029;-64
2022/10/20 04:52:35;;;;;;;17.08;14.35;;;10.80;99.90;;;;;;5073769;28;20487;-63
2022/10/20 04:55:01;;;;;;;22.55;16.95;;;10.70;99.90;;;;;;5073612;28;20492;-63
2022/10/20 04:57:26;;;;;;;26.58;20.25;;;10.70;99.90;;;;;;5073625;28;20514;-63
2022/10/20 04:59:52;;;;;;;26.17;19.88;;;10.70;99.90;;;;;;5073287;28;20471;-64
2022/10/20 05:02:18;;;;;;;46.15;36.22;;;10.70;99.90;;;;;;5073601;28;20027;-64
2022/10/20 05:04:43;;;;;;;32.60;25.67;;;10.70;99.90;;;;;;5073370;28;20029;-63
2022/10/20 05:07:09;;;;;;;53.95;41.65;;;10.70;99.90;;;;;;5073592;28;20025;-64
2022/10/20 05:09:35;;;;;;;52.78;38.42;;;10.70;99.90;;;;;;5061134;28;20033;-64
2022/10/20 05:12:00;;;;;;;47.28;36.13;;;10.70;99.90;;;;;;5052833;28;20017;-64
2022/10/20 05:14:26;;;;;;;40.08;31.70;;;10.80;99.90;;;;;;5053536;28;20036;-65
2022/10/20 05:16:52;;;;;;;34.70;28.10;;;10.80;99.90;;;;;;5053327;28;20021;-65
2022/10/20 05:19:18;;;;;;;34.70;27.33;;;10.90;99.90;;;;;;5053340;28;20052;-63
2022/10/20 05:21:44;;;;;;;43.50;33.65;;;11.00;99.90;;;;;;5070850;28;20123;-63
2022/10/20 05:24:15;;;;;;;57.72;41.05;;;11.10;99.90;;;;;;5073479;28;20031;-62
2022/10/20 05:26:40;;;;;;;44.03;33.53;;;11.00;99.90;;;;;;5072109;28;20032;-65
2022/10/20 05:29:08;;;;;;;43.05;33.75;;;11.10;99.90;;;;;;5071979;28;20044;-64
2022/10/20 05:31:40;;;;;;;35.58;27.90;;;11.00;99.90;;;;;;5071083;28;20036;-65
2022/10/20 05:34:06;;;;;;;38.33;30.60;;;11.10;99.90;;;;;;5072899;28;20017;-65
2022/10/20 05:36:32;;;;;;;35.85;28.73;;;11.20;99.90;;;;;;5073267;28;20020;-64
2022/10/20 05:38:58;;;;;;;38.15;28.80;;;11.20;99.90;;;;;;5072944;28;20069;-63
2022/10/20 05:41:26;;;;;;;35.33;27.85;;;11.30;99.90;;;;;;5072931;28;20476;-65
2022/10/20 05:43:58;;;;;;;30.75;23.08;;;11.30;99.90;;;;;;5072759;28;20099;-65
2022/10/20 05:46:26;;;;;;;26.73;21.60;;;11.40;99.90;;;;;;5071137;28;20035;-63
2022/10/20 05:48:54;;;;;;;21.80;18.60;;;11.40;99.90;;;;;;5071257;28;20029;-64
2022/10/20 05:51:23;;;;;;;17.25;15.23;;;11.40;99.90;;;;;;5065025;28;20122;-63
2022/10/20 05:53:50;;;;;;;17.67;14.95;;;11.50;99.90;;;;;;5053657;28;20029;-65
2022/10/20 05:56:18;;;;;;;17.95;14.65;;;11.60;99.90;;;;;;5052320;28;20022;-64
2022/10/20 05:58:44;;;;;;;16.90;14.00;;;11.60;99.90;;;;;;5067531;28;20020;-65
2022/10/20 06:01:18;;;;;;;25.17;17.77;;;11.70;99.90;;;;;;5072977;28;20033;-65
2022/10/20 06:03:58;;;;;;;37.75;26.02;;;11.70;99.90;;;;;;5072756;28;20024;-64
2022/10/20 06:06:25;;;;;;;29.42;22.35;;;11.80;99.90;;;;;;5071857;28;20082;-64
2022/10/20 06:08:52;;;;;;;38.10;29.40;;;11.90;99.90;;;;;;5071855;28;20107;-62
2022/10/20 06:11:18;;;;;;;28.30;21.73;;;11.90;99.90;;;;;;5059746;28;20470;-64
2022/10/20 06:13:44;;;;;;;22.65;18.13;;;12.00;99.90;;;;;;5056084;28;20033;-65
2022/10/20 06:16:19;;;;;;;17.13;14.95;;;11.90;99.90;;;;;;5072665;28;20096;-66
2022/10/20 06:18:44;;;;;;;14.00;11.15;;;11.90;99.90;;;;;;5069461;28;20486;-65
2022/10/20 06:21:16;;;;;;;12.45;10.15;;;12.00;99.90;;;;;;5070904;28;20024;-64
2022/10/20 06:23:41;;;;;;;11.43;9.35;;;12.10;99.90;;;;;;5069551;28;20048;-65
2022/10/20 06:26:10;;;;;;;9.52;8.48;;;12.20;99.90;;;;;;5071224;28;20056;-63
2022/10/20 06:28:38;;;;;;;9.82;8.32;;;12.30;99.90;;;;;;5068319;28;20132;-63
2022/10/20 06:31:11;;;;;;;9.52;7.97;;;12.30;99.90;;;;;;5049498;28;20032;-62
2022/10/20 06:33:37;;;;;;;8.23;6.60;;;12.30;99.90;;;;;;5066764;28;20455;-62
2022/10/20 06:36:03;;;;;;;11.48;8.45;;;12.20;99.90;;;;;;5068434;28;20063;-65
2022/10/20 06:38:29;;;;;;;14.88;11.45;;;12.20;99.90;;;;;;5071660;28;20024;-64
2022/10/20 06:40:55;;;;;;;22.15;16.70;;;12.30;99.90;;;;;;5073947;28;20093;-64
2022/10/20 06:43:21;;;;;;;32.60;24.58;;;12.30;99.90;;;;;;5073889;28;20093;-63
2022/10/20 06:46:00;;;;;;;29.05;21.58;;;12.30;99.90;;;;;;5074867;28;20383;-63
2022/10/20 06:48:26;;;;;;;28.40;21.20;;;13.60;99.90;;;;;;5076165;28;20372;-62
2022/10/20 06:51:01;;;;;;;24.52;20.40;;;16.60;99.90;;;;;;5073291;28;20111;-65
2022/10/20 06:53:27;;;;;;;21.80;17.50;;;19.10;81.30;;;;;;5074466;28;20032;-64
2022/10/20 06:56:20;;;;;;;19.95;16.98;;;20.80;68.30;;;;;;5073824;28;20413;-62
2022/10/20 06:58:48;;;;;;;25.98;20.33;;;22.40;60.70;;;;;;5072968;28;20142;-66
2022/10/20 07:01:22;;;;;;;25.17;19.98;;;23.70;54.40;;;;;;5073393;28;20028;-63
2022/10/20 07:03:48;;;;;;;23.17;18.48;;;24.30;52.80;;;;;;5075747;28;20064;-63
2022/10/20 07:06:20;;;;;;;21.15;17.92;;;24.90;50.00;;;;;;5074453;28;20059;-63
2022/10/20 07:08:46;;;;;;;19.52;15.90;;;25.30;48.80;;;;;;5068110;28;20390;-63
2022/10/20 07:11:14;;;;;;;16.92;14.40;;;26.00;48.00;;;;;;5075239;28;20032;-62
2022/10/20 07:13:40;;;;;;;17.90;14.45;;;26.60;47.10;;;;;;5072705;28;20729;-63
2022/10/20 07:16:07;;;;;;;16.15;13.70;;;27.20;45.30;;;;;;5072645;28;20034;-63
2022/10/20 07:18:36;;;;;;;25.70;22.08;;;27.70;44.80;;;;;;5055757;28;20040;-64
2022/10/20 07:21:04;;;;;;;18.30;16.48;;;28.40;42.90;;;;;;5060487;28;20074;-64
2022/10/20 07:23:31;;;;;;;17.77;15.98;;;28.80;42.20;;;;;;5072877;28;20550;-62
2022/10/20 07:26:05;;;;;;;17.10;15.30;;;29.10;41.10;;;;;;5068608;28;20032;-64
2022/10/20 07:28:30;;;;;;;;;;;29.20;41.20;;;;;;5071873;28;20037;-62
2022/10/20 07:31:00;;;;;;;19.85;17.85;;;29.30;40.60;;;;;;5067250;28;20271;-63
2022/10/20 07:33:26;;;;;;;20.30;18.15;;;29.30;40.30;;;;;;5061836;28;20051;-62
2022/10/20 07:35:52;;;;;;;18.75;16.85;;;29.20;40.60;;;;;;5066911;28;20424;-63
2022/10/20 07:38:17;;;;;;;17.02;15.30;;;29.00;40.60;;;;;;5073847;28;20078;-63
2022/10/20 07:40:43;;;;;;;15.98;14.38;;;29.00;40.40;;;;;;5072206;28;20020;-63
2022/10/20 07:43:08;;;;;;;14.15;12.73;;;29.30;40.40;;;;;;5073121;28;20032;-66
2022/10/20 07:45:34;;;;;;;17.55;14.93;;;29.50;39.60;;;;;;5069914;28;20044;-64
2022/10/20 07:48:00;;;;;;;13.15;11.68;;;29.70;38.90;;;;;;5071588;28;20020;-65
2022/10/20 07:50:26;;;;;;;16.45;12.40;;;29.60;39.30;;;;;;5071333;28;20025;-68
2022/10/20 07:52:52;;;;;;;10.55;9.18;;;29.60;37.70;;;;;;5070033;28;20074;-63
2022/10/20 07:55:19;;;;;;;9.63;8.73;;;29.10;39.40;;;;;;5065455;28;20090;-64
2022/10/20 07:57:46;;;;;;;10.20;8.23;;;29.40;39.00;;;;;;5072423;28;20036;-66
2022/10/20 08:00:12;;;;;;;10.02;8.95;;;29.60;38.60;;;;;;5070876;28;20479;-65
2022/10/20 08:02:39;;;;;;;9.07;7.85;;;29.60;38.80;;;;;;5071820;28;20032;-68
2022/10/20 08:05:06;;;;;;;10.15;8.63;;;29.90;37.60;;;;;;5061411;28;20043;-64
2022/10/20 08:07:32;;;;;;;10.25;8.68;;;30.20;37.80;;;;;;5071267;28;20426;-66
2022/10/20 08:09:58;;;;;;;9.45;8.20;;;30.10;38.20;;;;;;5073824;28;20165;-65
2022/10/20 08:12:23;;;;;;;15.98;10.27;;;30.10;37.70;;;;;;5072011;28;20055;-68
2022/10/20 08:14:50;;;;;;;10.23;8.93;;;30.20;37.00;;;;;;5061359;28;20025;-65
2022/10/20 08:17:16;;;;;;;9.45;8.50;;;29.40;38.00;;;;;;5054172;28;20020;-66
2022/10/20 08:19:42;;;;;;;12.68;9.93;;;29.00;38.70;;;;;;5066974;28;20016;-63
2022/10/20 08:22:08;;;;;;;9.88;8.80;;;27.50;39.30;;;;;;5072042;28;20122;-63
2022/10/20 08:24:33;;;;;;;10.98;8.68;;;26.30;40.50;;;;;;5070691;28;20032;-65
2022/10/20 08:27:00;;;;;;;9.13;8.18;;;25.00;42.00;;;;;;5071208;28;20067;-64
2022/10/20 08:29:26;;;;;;;13.07;10.98;;;23.90;43.70;;;;;;5070910;28;20076;-68
2022/10/20 08:31:51;;;;;;;13.95;10.27;;;22.30;46.80;;;;;;5072277;28;20074;-66
2022/10/20 08:34:17;;;;;;;13.00;10.45;;;21.50;48.70;;;;;;5071781;28;20343;-64
2022/10/20 08:36:43;;;;;;;13.85;11.05;;;21.10;49.50;;;;;;5071897;28;20035;-63
2022/10/20 08:39:09;;;;;;;12.00;10.60;;;20.90;49.90;;;;;;5069420;28;20021;-64
2022/10/20 08:41:38;;;;;;;13.27;10.10;;;20.70;49.80;;;;;;5069779;28;20434;-63
2022/10/20 08:44:06;;;;;;;15.10;11.15;;;20.40;51.10;;;;;;5068014;28;20059;-62
2022/10/20 08:46:35;;;;;;;11.68;9.02;;;20.00;51.60;;;;;;5068123;28;20328;-61
2022/10/20 08:49:02;;;;;;;10.55;8.02;;;19.30;52.60;;;;;;5070793;28;20024;-66
2022/10/20 08:51:37;;;;;;;8.95;7.65;;;19.10;52.20;;;;;;5064728;28;20047;-62
2022/10/20 08:54:04;;;;;;;11.02;8.82;;;19.10;53.40;;;;;;5066756;28;20021;-65
2022/10/20 08:56:33;;;;;;;10.45;8.82;;;19.10;53.30;;;;;;5069690;28;20021;-63
2022/10/20 08:59:00;;;;;;;10.43;9.20;;;19.20;52.90;;;;;;5064225;28;20021;-64
2022/10/20 09:01:27;;;;;;;9.77;8.77;;;19.30;53.10;;;;;;5065922;28;20320;-63
2022/10/20 09:04:01;;;;;;;11.60;8.70;;;19.30;52.90;;;;;;5070070;28;20032;-63
2022/10/20 09:06:27;;;;;;;11.48;8.85;;;19.20;52.90;;;;;;5067958;28;20115;-61
2022/10/20 09:08:54;;;;;;;10.93;8.43;;;18.90;54.00;;;;;;5067909;28;20457;-61
2022/10/20 09:11:26;;;;;;;10.20;8.65;;;19.00;54.80;;;;;;5071047;28;20119;-64
2022/10/20 09:13:52;;;;;;;10.75;8.35;;;19.20;54.90;;;;;;5070718;28;20027;-62
2022/10/20 09:16:27;;;;;;;9.50;7.82;;;19.30;53.90;;;;;;5071341;28;20382;-64
2022/10/20 09:18:56;;;;;;;10.15;7.40;;;19.10;53.20;;;;;;5068472;28;20039;-65
2022/10/20 09:21:24;;;;;;;7.85;6.47;;;19.00;53.90;;;;;;5071984;28;20101;-63
2022/10/20 09:23:59;;;;;;;6.55;5.13;;;19.40;53.40;;;;;;5068988;28;20082;-66
2022/10/20 09:26:32;;;;;;;5.50;4.68;;;19.90;51.70;;;;;;5069180;28;20025;-63
2022/10/20 09:29:14;;;;;;;4.60;3.92;;;20.30;51.20;;;;;;5071561;28;20139;-62
2022/10/20 09:31:46;;;;;;;4.80;3.95;;;20.80;49.80;;;;;;5068840;28;20064;-62
2022/10/20 09:34:31;;;;;;;5.32;4.22;;;21.20;48.10;;;;;;5068943;28;20016;-63
2022/10/20 09:37:06;;;;;;;5.53;4.15;;;21.40;47.90;;;;;;5069221;28;20115;-62
2022/10/20 09:39:39;;;;;;;7.25;4.78;;;21.40;48.20;;;;;;5082601;28;20033;-63
2022/10/20 09:42:27;;;;;;;6.50;5.10;;;21.60;48.80;;;;;;5066292;28;20025;-64
2022/10/20 09:45:00;;;;;;;6.38;5.32;;;22.00;50.10;;;;;;5059294;28;20024;-64
2022/10/20 09:47:26;;;;;;;;;;;22.30;47.40;;;;;;5071047;28;20428;-63
2022/10/20 09:50:01;;;;;;;6.18;5.20;;;22.20;46.80;;;;;;5068054;28;19964;-62
2022/10/20 09:52:32;;;;;;;5.88;4.65;;;22.40;46.70;;;;;;5069187;28;20374;-62
2022/10/20 09:55:06;;;;;;;7.70;4.82;;;22.50;46.30;;;;;;5067830;28;20036;-61
2022/10/20 09:57:32;;;;;;;6.28;4.40;;;22.80;47.70;;;;;;5067836;28;20013;-61
2022/10/20 09:59:59;;;;;;;5.22;4.35;;;23.20;45.50;;;;;;5071897;28;20033;-63
2022/10/20 10:02:28;;;;;;;5.13;4.18;;;23.40;45.90;;;;;;5072564;28;20017;-62
2022/10/20 10:05:13;;;;;;;5.28;3.95;;;23.60;45.40;;;;;;5073122;28;20033;-61
2022/10/20 10:07:39;;;;;;;6.30;5.10;;;23.70;44.20;;;;;;5054886;28;20048;-62
2022/10/20 10:10:17;;;;;;;7.03;5.03;;;23.10;44.60;;;;;;5073517;28;20068;-62
2022/10/20 10:12:53;;;;;;;5.97;5.05;;;22.90;46.00;;;;;;5074351;28;20056;-61
2022/10/20 10:15:22;;;;;;;5.90;4.88;;;23.00;46.60;;;;;;5074969;28;20466;-61
2022/10/20 10:17:49;;;;;;;5.40;4.57;;;23.10;46.20;;;;;;5073973;28;20020;-63
2022/10/20 10:20:17;;;;;;;5.88;4.70;;;23.50;46.30;;;;;;5073355;28;20451;-62
2022/10/20 10:22:43;;;;;;;6.30;5.18;;;23.80;44.80;;;;;;5075324;28;20021;-63
2022/10/20 10:25:26;;;;;;;5.25;4.60;;;23.90;43.60;;;;;;5075891;28;20096;-62
2022/10/20 10:28:07;;;;;;;4.32;3.85;;;23.90;43.70;;;;;;5075844;28;20055;-62
2022/10/20 10:30:36;;;;;;;6.00;4.00;;;24.30;45.00;;;;;;5075540;28;20048;-62
2022/10/20 10:33:26;;;;;;;5.20;3.60;;;24.40;42.60;;;;;;5075925;28;20123;-63
2022/10/20 10:35:52;;;;;;;4.53;3.17;;;24.20;42.80;;;;;;5076241;28;20032;-62
2022/10/20 10:38:18;;;;;;;4.18;3.05;;;24.20;41.70;;;;;;5075479;28;20386;-63
2022/10/20 10:41:08;;;;;;;3.30;3.00;;;24.40;41.80;;;;;;5075913;28;20031;-63
2022/10/20 10:43:55;;;;;;;3.63;2.65;;;24.60;41.60;;;;;;5074710;28;20058;-63
2022/10/20 10:46:26;;;;;;;4.85;3.30;;;24.70;42.70;;;;;;5073785;28;20078;-63
2022/10/20 10:48:58;;;;;;;3.20;2.90;;;24.70;40.60;;;;;;5072819;28;20029;-62
2022/10/20 10:51:50;;;;;;;3.03;2.72;;;24.40;46.20;;;;;;5066645;28;20086;-63
2022/10/20 10:54:24;;;;;;;4.45;2.80;;;24.50;42.10;;;;;;5070073;28;20031;-62
2022/10/20 10:57:08;;;;;;;3.92;2.92;;;24.40;43.60;;;;;;5075795;28;20077;-61
2022/10/20 10:59:35;;;;;;;2.72;2.53;;;24.50;43.20;;;;;;5073914;28;20027;-62
2022/10/20 11:02:04;;;;;;;2.92;2.70;;;24.90;44.60;;;;;;5075582;28;20074;-62
2022/10/20 11:04:53;;;;;;;3.58;2.58;;;25.10;41.80;;;;;;5069659;28;20038;-63
2022/10/20 11:07:40;;;;;;;5.78;3.72;;;25.20;42.30;;;;;;5075653;28;20091;-62
2022/10/20 11:10:18;;;;;;;4.28;2.92;;;25.10;40.70;;;;;;5072496;28;20032;-62
2022/10/20 11:12:56;;;;;;;2.97;2.30;;;24.70;42.50;;;;;;5073836;28;20027;-63
2022/10/20 11:15:37;;;;;;;3.70;2.85;;;25.00;41.10;;;;;;5075099;28;20099;-62
2022/10/20 11:18:32;;;;;;;3.05;2.58;;;25.20;41.60;;;;;;5072767;28;20032;-63
2022/10/20 11:21:32;;;;;;;3.47;3.17;;;25.60;41.20;;;;;;5063467;28;20655;-63
2022/10/20 11:24:33;;;;;;;5.22;3.67;;;26.00;40.40;;;;;;5054238;28;20021;-63
2022/10/20 11:27:13;;;;;;;4.50;4.05;;;26.00;42.20;;;;;;5016807;28;20038;-62
2022/10/20 11:30:07;;;;;;;4.22;3.08;;;25.60;41.40;;;;;;5053895;28;20059;-61
2022/10/20 11:32:55;;;;;;;4.57;3.40;;;25.30;41.60;;;;;;5052893;28;20037;-62
2022/10/20 11:35:28;;;;;;;4.03;2.83;;;25.20;43.10;;;;;;5053719;28;20027;-62
2022/10/20 11:38:02;;;;;;;3.15;2.80;;;24.70;43.90;;;;;;5052236;28;20541;-62
2022/10/20 11:40:31;;;;;;;3.08;2.78;;;25.00;43.90;;;;;;5054778;28;20024;-62
2022/10/20 11:43:06;;;;;;;3.75;3.03;;;25.20;42.00;;;;;;5069146;28;20043;-62
2022/10/20 11:45:54;;;;;;;3.45;3.15;;;25.20;44.20;;;;;;5061094;28;20028;-62
2022/10/20 11:48:23;;;;;;;4.63;3.10;;;25.20;41.00;;;;;;5063072;28;20013;-63
2022/10/20 11:51:29;;;;;;;3.60;3.10;;;24.70;41.60;;;;;;5061833;28;20035;-62
2022/10/20 11:54:14;;;;;;;3.00;2.70;;;24.60;42.00;;;;;;5063478;28;20085;-63
2022/10/20 11:56:48;;;;;;;2.83;2.50;;;24.80;44.10;;;;;;5093125;28;20024;-62
2022/10/20 11:59:32;;;;;;;3.13;2.88;;;25.20;45.30;;;;;;5066508;28;20496;-62
2022/10/20 12:02:24;;;;;;;2.50;2.30;;;25.60;44.10;;;;;;5074302;28;20075;-62
2022/10/20 12:05:14;;;;;;;4.85;3.25;;;25.70;42.20;;;;;;5067319;28;20035;-62
2022/10/20 12:08:04;;;;;;;3.38;3.08;;;25.60;44.00;;;;;;5067367;28;20031;-63
2022/10/20 12:10:41;;;;;;;2.72;2.50;;;25.60;41.00;;;;;;5073094;28;20108;-62
2022/10/20 12:13:16;;;;;;;2.72;2.53;;;25.80;44.70;;;;;;5071759;28;20368;-61
2022/10/20 12:15:47;;;;;;;3.38;3.08;;;26.20;41.10;;;;;;5069222;28;20509;-63
2022/10/20 12:18:24;;;;;;;6.30;4.75;;;26.50;40.40;;;;;;5070597;28;20032;-63
2022/10/20 12:20:54;;;;;;;4.00;3.58;;;26.80;39.50;;;;;;5070476;28;20032;-63
2022/10/20 12:24:01;;;;;;;3.72;3.42;;;26.90;39.70;;;;;;5069335;28;20269;-62
2022/10/20 12:26:31;;;;;;;3.25;2.95;;;26.70;39.10;;;;;;5026831;28;20057;-63
2022/10/20 12:28:59;;;;;;;4.22;3.15;;;26.70;39.70;;;;;;5059615;28;20045;-61
2022/10/20 12:32:03;;;;;;;3.60;3.00;;;26.90;38.80;;;;;;5055720;28;20441;-62
2022/10/20 12:34:38;;;;;;;3.13;2.83;;;26.90;38.40;;;;;;5050388;28;20017;-63
2022/10/20 12:37:19;;;;;;;3.92;3.55;;;27.00;40.40;;;;;;5052858;28;20056;-61
2022/10/20 12:39:47;;;;;;;4.80;3.63;;;26.70;38.90;;;;;;5055394;28;20021;-61
2022/10/20 12:42:25;;;;;;;4.53;3.60;;;26.00;39.30;;;;;;5052753;28;20082;-63
2022/10/20 12:44:52;;;;;;;4.88;3.45;;;25.50;41.00;;;;;;5051490;28;20021;-62
2022/10/20 12:47:23;;;;;;;5.15;4.20;;;25.40;41.90;;;;;;5065523;28;20037;-61
2022/10/20 12:49:56;;;;;;;4.75;3.88;;;25.00;41.20;;;;;;5064074;28;20090;-61
2022/10/20 12:52:31;;;;;;;;;;;24.60;41.90;;;;;;5071778;28;20029;-61
2022/10/20 12:55:19;;;;;;;4.40;3.00;;;24.50;44.10;;;;;;5073362;28;19905;-62
2022/10/20 12:57:46;;;;;;;5.00;3.90;;;25.10;41.70;;;;;;5073918;28;20048;-62